Nord Glory — 3FIA5 — position and weather

sailwx.info

Track history (hours):
 
Tides and Currents Weather Stations Pressure Air Temp Water Temp Dewpoint Dewpoint Depression Visibility Wind Speed Wind Dir Waves Ship Positions

Nord Glory

Last reported at 2016-Jul-21 21:33 UTC. Time now 2016-Jul-25 11:57 UTC.
Position N 37°43' E 122°44'.

Length 190 m; draft 10.3 m.

Type: Cargo ship. MMSI: 354206000.

Date/timePositionNaut miles runAvg speedWind from/ knotsBaromVisibWave heightAir tempDewpointWater temp
2016-Jul-21 21:33N 37°43' E 122°44'1111.3
2016-Jul-21 20:33N 37°49' E 122°32'1212.3
2016-Jul-21 19:33N 37°55' E 122°18'5512.2
2016-Jul-21 15:05N 38°23' E 121°18'712.1
2016-Jul-21 14:33N 38°27' E 121°11'1212.2
2016-Jul-21 13:33N 38°33' E 120°58'1312.6
2016-Jul-21 12:33N 38°35' E 120°42'1512.6
2016-Jul-21 11:23N 38°37' E 120°23'1512.7
2016-Jul-21 10:12N 38°39' E 120°04'812.2
2016-Jul-21 09:33N 38°40' E 119°54'1212.3
2016-Jul-21 08:33N 38°42' E 119°39'1312.8
2016-Jul-21 07:32N 38°43' E 119°22'  
2016-Jul-18 07:06N 38°53' E 118°21'0 0.0
2016-Jul-18 03:31N 38°53' E 118°21'0 0.0
2016-Jul-18 01:22N 38°53' E 118°21'0 0.1
2016-Jul-18 00:31N 38°53' E 118°21'0 0.1
2016-Jul-17 23:25N 38°53' E 118°22'0 0.0
2016-Jul-17 22:31N 38°53' E 118°22'10 0.7
2016-Jul-17 07:28N 38°47' E 118°11'12 0.4
2016-Jul-16 04:32N 38°56' E 118°02'1212.4
2016-Jul-16 03:33N 38°58' E 117°46'1 0.5
2016-Jul-16 02:22N 38°59' E 117°46'0 0.0
2016-Jul-16 01:28N 38°59' E 117°46'0 0.0
2016-Jul-16 00:28N 38°59' E 117°46'0 0.0
2016-Jul-15 22:28N 38°59' E 117°46'0 0.0
2016-Jul-15 21:28N 38°59' E 117°46'0 0.0
2016-Jul-15 20:28N 38°59' E 117°46'0 0.0
2016-Jul-15 19:28N 38°59' E 117°46'0 0.0
2016-Jul-15 18:28N 38°59' E 117°46'0 0.0
2016-Jul-15 17:22N 38°59' E 117°46'0 0.0
2016-Jul-15 16:34N 38°59' E 117°46'0 0.0
2016-Jul-15 15:22N 38°59' E 117°46'0 0.0
2016-Jul-15 14:33N 38°59' E 117°46'0 0.0
2016-Jul-15 13:27N 38°59' E 117°46'0 0.0
2016-Jul-15 12:22N 38°59' E 117°46'0 0.0
2016-Jul-15 11:34N 38°59' E 117°46'0 0.0
2016-Jul-15 10:34N 38°59' E 117°46'0 0.0
2016-Jul-15 09:34N 38°59' E 117°46'0 0.0
2016-Jul-15 08:28N 38°59' E 117°46'0 0.0
2016-Jul-15 07:34N 38°59' E 117°46'2 1.8
2016-Jul-15 06:34N 38°58' E 117°48'9 8.5
2016-Jul-15 05:33N 38°57' E 117°59'9110.1
2016-Jul-14 20:33N 38°39' E 119°53'1514.9
2016-Jul-14 19:33N 38°39' E 120°12'1414.5
2016-Jul-14 18:33N 38°38' E 120°31'2813.6
2016-Jul-14 16:30N 38°33' E 121°06'1314.1
2016-Jul-14 15:33N 38°26' E 121°20'1514.3
2016-Jul-14 14:32N 38°19' E 121°37'3013.8
2016-Jul-14 12:22N 38°03' E 122°09'1113.8
2016-Jul-14 11:32N 37°58' E 122°22'1414.0
2016-Jul-14 10:33N 37°50' E 122°36'1414.4
2016-Jul-14 09:33N 37°42' E 122°51'1514.8
2016-Jul-14 08:33N 37°35' E 123°08'  
Track history (hours):
 
Tides and Currents Weather Stations Pressure Air Temp Water Temp Dewpoint Dewpoint Depression Visibility Wind Speed Wind Dir Waves Ship Positions

Nord Glory

Last reported at 2016-Jul-21 21:33 UTC. Time now 2016-Jul-25 11:57 UTC.
Position N 37°43' E 122°44'.

Length 190 m; draft 10.3 m.

Type: Cargo ship. MMSI: 354206000.

Date/timePositionNaut miles runAvg speedWind from/ knotsBaromVisibWave heightAir tempDewpointWater temp
2016-Jul-21 21:33N 37°43' E 122°44'1111.3
2016-Jul-21 20:33N 37°49' E 122°32'1212.3
2016-Jul-21 19:33N 37°55' E 122°18'5512.2
2016-Jul-21 15:05N 38°23' E 121°18'712.1
2016-Jul-21 14:33N 38°27' E 121°11'1212.2
2016-Jul-21 13:33N 38°33' E 120°58'1312.6
2016-Jul-21 12:33N 38°35' E 120°42'1512.6
2016-Jul-21 11:23N 38°37' E 120°23'1512.7
2016-Jul-21 10:12N 38°39' E 120°04'812.2
2016-Jul-21 09:33N 38°40' E 119°54'1212.3
2016-Jul-21 08:33N 38°42' E 119°39'1312.8
2016-Jul-21 07:32N 38°43' E 119°22'  
2016-Jul-18 07:06N 38°53' E 118°21'0 0.0
2016-Jul-18 03:31N 38°53' E 118°21'0 0.0
2016-Jul-18 01:22N 38°53' E 118°21'0 0.1
2016-Jul-18 00:31N 38°53' E 118°21'0 0.1
2016-Jul-17 23:25N 38°53' E 118°22'0 0.0
2016-Jul-17 22:31N 38°53' E 118°22'10 0.7
2016-Jul-17 07:28N 38°47' E 118°11'12 0.4
2016-Jul-16 04:32N 38°56' E 118°02'1212.4
2016-Jul-16 03:33N 38°58' E 117°46'1 0.5
2016-Jul-16 02:22N 38°59' E 117°46'0 0.0
2016-Jul-16 01:28N 38°59' E 117°46'0 0.0
2016-Jul-16 00:28N 38°59' E 117°46'0 0.0
2016-Jul-15 22:28N 38°59' E 117°46'0 0.0
2016-Jul-15 21:28N 38°59' E 117°46'0 0.0
2016-Jul-15 20:28N 38°59' E 117°46'0 0.0
2016-Jul-15 19:28N 38°59' E 117°46'0 0.0
2016-Jul-15 18:28N 38°59' E 117°46'0 0.0
2016-Jul-15 17:22N 38°59' E 117°46'0 0.0
2016-Jul-15 16:34N 38°59' E 117°46'0 0.0
2016-Jul-15 15:22N 38°59' E 117°46'0 0.0
2016-Jul-15 14:33N 38°59' E 117°46'0 0.0
2016-Jul-15 13:27N 38°59' E 117°46'0 0.0
2016-Jul-15 12:22N 38°59' E 117°46'0 0.0
2016-Jul-15 11:34N 38°59' E 117°46'0 0.0
2016-Jul-15 10:34N 38°59' E 117°46'0 0.0
2016-Jul-15 09:34N 38°59' E 117°46'0 0.0
2016-Jul-15 08:28N 38°59' E 117°46'0 0.0
2016-Jul-15 07:34N 38°59' E 117°46'2 1.8
2016-Jul-15 06:34N 38°58' E 117°48'9 8.5
2016-Jul-15 05:33N 38°57' E 117°59'9110.1
2016-Jul-14 20:33N 38°39' E 119°53'1514.9
2016-Jul-14 19:33N 38°39' E 120°12'1414.5
2016-Jul-14 18:33N 38°38' E 120°31'2813.6
2016-Jul-14 16:30N 38°33' E 121°06'1314.1
2016-Jul-14 15:33N 38°26' E 121°20'1514.3
2016-Jul-14 14:32N 38°19' E 121°37'3013.8
2016-Jul-14 12:22N 38°03' E 122°09'1113.8
2016-Jul-14 11:32N 37°58' E 122°22'1414.0
2016-Jul-14 10:33N 37°50' E 122°36'1414.4
2016-Jul-14 09:33N 37°42' E 122°51'1514.8
2016-Jul-14 08:33N 37°35' E 123°08'  

Dump ship's entire track history